createdAt,value
2022-10-11T00:00:33.853Z,13.41
2022-10-11T00:01:33.830Z,13.38
2022-10-11T00:02:33.953Z,13.30
2022-10-11T00:03:33.692Z,13.27
2022-10-11T00:04:33.703Z,13.27
2022-10-11T00:05:33.763Z,13.26
2022-10-11T00:06:33.503Z,13.22
2022-10-11T00:07:33.771Z,13.21
2022-10-11T00:08:33.523Z,13.21
2022-10-11T00:09:33.817Z,13.22
2022-10-11T00:10:33.577Z,13.26
2022-10-11T00:11:33.652Z,13.31
2022-10-11T00:12:33.503Z,13.37
2022-10-11T00:13:33.843Z,13.38
2022-10-11T00:14:33.663Z,13.41
2022-10-11T00:15:33.647Z,13.39
2022-10-11T00:16:33.592Z,13.31
2022-10-11T00:17:33.623Z,13.35
2022-10-11T00:18:33.524Z,13.35
2022-10-11T00:19:33.562Z,13.35
2022-10-11T00:20:33.584Z,13.35
2022-10-11T00:21:33.332Z,13.38
2022-10-11T00:22:33.513Z,13.30
2022-10-11T00:23:33.498Z,13.26
2022-10-11T00:24:33.582Z,13.19
2022-10-11T00:25:33.512Z,13.19
2022-10-11T00:26:33.622Z,13.18
2022-10-11T00:27:33.384Z,13.13
2022-10-11T00:28:33.606Z,13.11
2022-10-11T00:29:33.363Z,13.08
2022-10-11T00:30:32.653Z,13.05
2022-10-11T00:31:35.802Z,12.94
2022-10-11T00:32:33.454Z,12.94
2022-10-11T00:33:33.552Z,12.90
2022-10-11T00:34:33.402Z,12.96
2022-10-11T00:35:33.402Z,12.98
2022-10-11T00:36:33.242Z,13.00
2022-10-11T00:37:33.343Z,12.98
2022-10-11T00:38:33.303Z,12.93
2022-10-11T00:39:33.454Z,12.88
2022-10-11T00:40:33.183Z,12.82
2022-10-11T00:41:33.434Z,12.80
2022-10-11T00:42:33.177Z,12.76
2022-10-11T00:43:33.315Z,12.73
2022-10-11T00:44:33.203Z,12.71
2022-10-11T00:45:33.303Z,12.65
2022-10-11T00:46:33.252Z,12.63
2022-10-11T00:47:33.314Z,12.58
2022-10-11T00:48:33.178Z,12.50
2022-10-11T00:49:33.292Z,12.43
2022-10-11T00:50:33.198Z,12.45
2022-10-11T00:51:33.062Z,12.42
2022-10-11T00:52:33.242Z,12.43
2022-10-11T00:53:33.104Z,12.50
2022-10-11T00:54:33.181Z,12.53
2022-10-11T00:55:33.123Z,12.57
2022-10-11T00:56:33.172Z,12.57
2022-10-11T00:57:33.103Z,12.57
2022-10-11T00:58:33.222Z,12.58
2022-10-11T00:59:33.023Z,12.61
2022-10-11T01:00:33.364Z,12.63
2022-10-11T01:01:33.230Z,12.64
2022-10-11T01:02:33.322Z,12.65
2022-10-11T01:03:33.042Z,12.64
2022-10-11T01:04:33.185Z,12.72
2022-10-11T01:05:33.126Z,12.78
2022-10-11T01:06:32.922Z,12.76
2022-10-11T01:07:33.163Z,12.80
2022-10-11T01:08:32.906Z,12.79
2022-10-11T01:09:33.066Z,12.79
2022-10-11T01:10:32.904Z,12.87
2022-10-11T01:11:33.004Z,12.88
2022-10-11T01:12:32.973Z,12.93
2022-10-11T01:13:33.104Z,12.94
2022-10-11T01:14:32.952Z,12.96
2022-10-11T01:15:32.972Z,12.93
2022-10-11T01:16:32.886Z,12.94
2022-10-11T01:17:33.033Z,12.96
2022-10-11T01:18:32.933Z,12.98
2022-10-11T01:19:32.142Z,12.98
2022-10-11T01:20:32.923Z,13.01
2022-10-11T01:21:32.954Z,13.00
2022-10-11T01:22:32.903Z,13.03
2022-10-11T01:23:32.723Z,13.01
2022-10-11T01:24:32.943Z,12.97
2022-10-11T01:25:32.692Z,12.97
2022-10-11T01:26:32.873Z,12.94
2022-10-11T01:27:32.881Z,12.96
2022-10-11T01:28:32.918Z,12.94
2022-10-11T01:29:32.873Z,12.93
2022-10-11T01:30:33.104Z,12.90
2022-10-11T01:31:32.744Z,12.91
2022-10-11T01:32:32.885Z,12.93
2022-10-11T01:33:32.682Z,12.93
2022-10-11T01:34:32.844Z,12.94
2022-10-11T01:35:32.783Z,12.96
2022-10-11T01:36:32.952Z,12.97
2022-10-11T01:37:32.782Z,13.01
2022-10-11T01:38:32.646Z,13.03
2022-10-11T01:39:32.684Z,13.08
2022-10-11T01:40:32.602Z,13.09
2022-10-11T01:41:32.693Z,13.05
2022-10-11T01:42:32.552Z,12.96
2022-10-11T01:43:32.765Z,12.93
2022-10-11T01:44:32.543Z,12.91
2022-10-11T01:45:32.714Z,12.97
2022-10-11T01:46:32.645Z,13.03
2022-10-11T01:47:32.645Z,13.05
2022-10-11T01:48:32.595Z,13.01
2022-10-11T01:49:32.683Z,12.90
2022-10-11T01:50:32.633Z,12.91
2022-10-11T01:51:32.664Z,12.87
2022-10-11T01:52:32.653Z,12.85
2022-10-11T01:53:32.394Z,12.93
2022-10-11T01:54:56.490Z,13.00
2022-10-11T01:55:33.243Z,13.00
2022-10-11T01:56:32.544Z,12.94
2022-10-11T01:57:32.493Z,12.87
2022-10-11T01:58:31.782Z,12.75
2022-10-11T01:59:33.412Z,12.73
2022-10-11T02:00:32.543Z,12.72
2022-10-11T02:01:32.525Z,12.76
2022-10-11T02:02:32.493Z,12.79
2022-10-11T02:03:32.603Z,12.82
2022-10-11T02:04:32.532Z,12.90
2022-10-11T02:05:32.453Z,12.94
2022-10-11T02:06:32.473Z,12.94
2022-10-11T02:07:32.463Z,12.96
2022-10-11T02:08:32.233Z,12.96
2022-10-11T02:09:32.393Z,12.93
2022-10-11T02:10:32.423Z,12.93
2022-10-11T02:11:32.403Z,12.97
2022-10-11T02:12:32.282Z,12.93
2022-10-11T02:13:32.405Z,12.93
2022-10-11T02:14:32.246Z,12.96
2022-10-11T02:15:32.433Z,12.96
2022-10-11T02:16:32.293Z,12.94
2022-10-11T02:17:32.342Z,12.93
2022-10-11T02:18:32.234Z,12.96
2022-10-11T02:19:32.327Z,12.94
2022-10-11T02:20:32.342Z,12.97
2022-10-11T02:21:32.473Z,12.97
2022-10-11T02:22:32.184Z,13.03
2022-10-11T02:23:32.163Z,13.06
2022-10-11T02:24:32.243Z,13.11
2022-10-11T02:25:32.082Z,13.15
2022-10-11T02:26:32.303Z,13.11
2022-10-11T02:27:32.063Z,13.11
2022-10-11T02:28:32.321Z,13.09
2022-10-11T02:29:32.063Z,13.11
2022-10-11T02:30:32.203Z,13.12
2022-10-11T02:31:32.153Z,13.16
2022-10-11T02:32:32.378Z,13.08
2022-10-11T02:33:32.052Z,13.09
2022-10-11T02:34:32.362Z,13.00
2022-10-11T02:35:32.073Z,13.05
2022-10-11T02:36:32.364Z,13.09
2022-10-11T02:37:32.145Z,13.12
2022-10-11T02:38:32.324Z,13.11
2022-10-11T02:39:32.112Z,12.94
2022-10-11T02:40:31.923Z,12.96
2022-10-11T02:41:32.143Z,12.91
2022-10-11T02:42:31.963Z,12.90
2022-10-11T02:43:32.082Z,12.93
2022-10-11T02:44:31.882Z,12.93
2022-10-11T02:45:32.045Z,12.96
2022-10-11T02:46:31.942Z,13.05
2022-10-11T02:47:32.233Z,13.05
2022-10-11T02:48:32.102Z,13.03
2022-10-11T02:49:32.042Z,12.98
2022-10-11T02:50:31.933Z,12.96
2022-10-11T02:51:31.992Z,12.96
2022-10-11T02:52:31.902Z,13.00
2022-10-11T02:53:31.953Z,13.05
2022-10-11T02:54:31.942Z,12.96
2022-10-11T02:55:31.143Z,12.96
2022-10-11T02:56:31.912Z,12.98
2022-10-11T02:57:31.713Z,13.01
2022-10-11T02:58:31.949Z,13.01
2022-10-11T02:59:31.823Z,12.98
2022-10-11T03:00:31.892Z,12.98
2022-10-11T03:01:31.929Z,12.93
2022-10-11T03:02:31.972Z,12.90
2022-10-11T03:03:31.763Z,12.85
2022-10-11T03:04:31.884Z,12.79
2022-10-11T03:05:31.783Z,12.78
2022-10-11T03:06:31.833Z,12.76
2022-10-11T03:07:31.734Z,12.69
2022-10-11T03:08:31.853Z,12.71
2022-10-11T03:09:31.745Z,12.72
2022-10-11T03:10:31.583Z,12.71
2022-10-11T03:11:31.833Z,12.72
2022-10-11T03:12:31.603Z,12.69
2022-10-11T03:13:31.713Z,12.68
2022-10-11T03:14:31.643Z,12.64
2022-10-11T03:15:31.762Z,12.64
2022-10-11T03:16:31.823Z,12.57
2022-10-11T03:17:36.499Z,12.42
2022-10-11T03:18:31.595Z,12.39
2022-10-11T03:19:31.743Z,12.38
2022-10-11T03:20:31.593Z,12.36
2022-10-11T03:21:31.702Z,12.35
2022-10-11T03:22:31.813Z,12.30
2022-10-11T03:23:31.726Z,12.28
2022-10-11T03:24:31.624Z,12.24
2022-10-11T03:25:31.453Z,12.18
2022-10-11T03:26:31.594Z,12.15
2022-10-11T03:27:31.502Z,12.07
2022-10-11T03:28:31.617Z,12.00
2022-10-11T03:29:31.404Z,11.99
2022-10-11T03:30:31.943Z,11.96
2022-10-11T03:31:31.423Z,11.90
2022-10-11T03:32:31.653Z,11.87
2022-10-11T03:33:31.432Z,11.83
2022-10-11T03:34:31.582Z,11.83
2022-10-11T03:35:31.441Z,11.83
2022-10-11T03:36:31.932Z,11.80
2022-10-11T03:37:31.502Z,11.79
2022-10-11T03:38:31.593Z,11.77
2022-10-11T03:39:31.422Z,11.72
2022-10-11T03:40:31.522Z,11.79
2022-10-11T03:41:31.433Z,11.81
2022-10-11T03:42:31.304Z,11.80
2022-10-11T03:43:31.453Z,11.84
2022-10-11T03:44:31.332Z,11.81
2022-10-11T03:45:31.424Z,11.65
2022-10-11T03:46:31.247Z,11.71
2022-10-11T03:47:31.443Z,11.72
2022-10-11T03:48:31.272Z,11.72
2022-10-11T03:49:31.512Z,11.71
2022-10-11T03:50:31.364Z,11.71
2022-10-11T03:51:31.424Z,11.66
2022-10-11T03:52:31.333Z,11.61
2022-10-11T03:53:31.333Z,11.50
2022-10-11T03:54:31.232Z,11.41
2022-10-11T03:55:31.601Z,11.33
2022-10-11T03:56:31.274Z,11.30
2022-10-11T03:57:31.096Z,11.29
2022-10-11T03:58:31.243Z,11.29
2022-10-11T03:59:31.242Z,11.25
2022-10-11T04:00:31.473Z,11.14
2022-10-11T04:01:31.209Z,11.11
2022-10-11T04:02:33.733Z,11.11
2022-10-11T04:03:31.103Z,11.07
2022-10-11T04:04:31.343Z,11.00
2022-10-11T04:05:31.153Z,10.89
2022-10-11T04:06:31.383Z,10.85
2022-10-11T04:07:31.192Z,10.79
2022-10-11T04:08:31.216Z,10.85
2022-10-11T04:09:31.153Z,10.86
2022-10-11T04:10:31.143Z,10.89
2022-10-11T04:11:31.103Z,10.90
2022-10-11T04:12:31.083Z,10.90
2022-10-11T04:13:31.105Z,10.93
2022-10-11T04:14:30.953Z,10.93
2022-10-11T04:15:31.192Z,10.87
2022-10-11T04:16:31.093Z,10.89
2022-10-11T04:17:31.163Z,10.87
2022-10-11T04:18:31.024Z,10.86
2022-10-11T04:19:31.092Z,10.85
2022-10-11T04:20:30.974Z,10.85
2022-10-11T04:21:31.093Z,10.85
2022-10-11T04:22:31.503Z,10.82
2022-10-11T04:23:31.072Z,10.87
2022-10-11T04:24:31.152Z,10.92
2022-10-11T04:25:31.233Z,10.92
2022-10-11T04:26:31.353Z,10.92
2022-10-11T04:27:30.843Z,10.90
2022-10-11T04:28:31.063Z,10.89
2022-10-11T04:29:32.739Z,10.89
2022-10-11T04:30:31.302Z,10.87
2022-10-11T04:31:30.804Z,10.85
2022-10-11T04:32:31.062Z,10.79
2022-10-11T04:33:30.896Z,10.78
2022-10-11T04:34:30.943Z,10.75
2022-10-11T04:35:30.823Z,10.75
2022-10-11T04:36:31.123Z,10.75
2022-10-11T04:37:30.913Z,10.78
2022-10-11T04:38:30.911Z,10.75
2022-10-11T04:39:30.832Z,10.75
2022-10-11T04:40:30.854Z,10.78
2022-10-11T04:41:30.873Z,10.79
2022-10-11T04:42:30.872Z,10.78
2022-10-11T04:43:30.819Z,10.78
2022-10-11T04:44:30.973Z,10.79
2022-10-11T04:45:30.742Z,10.77
2022-10-11T04:46:30.673Z,10.78
2022-10-11T04:47:30.842Z,10.75
2022-10-11T04:48:30.642Z,10.74
2022-10-11T04:49:30.873Z,10.72
2022-10-11T04:50:30.692Z,10.72
2022-10-11T04:51:30.813Z,10.68
2022-10-11T04:52:30.662Z,10.64
2022-10-11T04:53:30.693Z,10.62
2022-10-11T04:54:30.602Z,10.65
2022-10-11T04:55:30.732Z,10.65
2022-10-11T04:56:30.622Z,10.70
2022-10-11T04:57:30.893Z,10.67
2022-10-11T04:58:30.683Z,10.70
2022-10-11T04:59:30.414Z,10.74
2022-10-11T05:00:30.652Z,10.74
2022-10-11T05:01:30.535Z,10.79
2022-10-11T05:02:30.783Z,10.75
2022-10-11T05:03:30.516Z,10.74
2022-10-11T05:04:30.694Z,10.74
2022-10-11T05:05:30.452Z,10.83
2022-10-11T05:06:30.595Z,10.89
2022-10-11T05:07:30.602Z,10.82
2022-10-11T05:08:30.706Z,10.78
2022-10-11T05:09:30.603Z,10.72
2022-10-11T05:10:30.613Z,10.64
2022-10-11T05:11:30.522Z,10.65
2022-10-11T05:12:30.512Z,10.52
2022-10-11T05:13:31.069Z,10.46
2022-10-11T05:14:30.462Z,10.41
2022-10-11T05:15:30.822Z,10.52
2022-10-11T05:16:30.403Z,10.53
2022-10-11T05:17:31.082Z,10.60
2022-10-11T05:18:30.924Z,10.65
2022-10-11T05:19:30.793Z,10.57
2022-10-11T05:20:30.313Z,10.60
2022-10-11T05:21:30.482Z,10.68
2022-10-11T05:22:30.933Z,10.75
2022-10-11T05:23:30.953Z,10.82
2022-10-11T05:24:30.323Z,10.92
2022-10-11T05:25:30.812Z,10.96
2022-10-11T05:26:46.121Z,11.01
2022-10-11T05:27:30.499Z,11.03
2022-10-11T05:28:30.969Z,11.08
2022-10-11T05:29:30.460Z,11.11
2022-10-11T05:30:30.400Z,11.15
2022-10-11T05:31:31.155Z,11.22
2022-10-11T05:32:30.367Z,11.25
2022-10-11T05:33:30.738Z,11.26
2022-10-11T05:34:30.734Z,11.29
2022-10-11T05:35:30.406Z,11.30
2022-10-11T05:36:30.324Z,11.33
2022-10-11T05:37:30.225Z,11.33
2022-10-11T05:38:31.095Z,11.43
2022-10-11T05:39:30.135Z,11.46
2022-10-11T05:40:30.325Z,11.61
2022-10-11T05:41:30.275Z,11.68
2022-10-11T05:42:30.295Z,11.63
2022-10-11T05:43:30.135Z,11.68
2022-10-11T05:44:30.265Z,11.66
2022-10-11T05:45:30.305Z,11.71
2022-10-11T05:46:29.984Z,11.81
2022-10-11T05:47:30.213Z,11.88
2022-10-11T05:48:29.983Z,11.83
2022-10-11T05:49:30.214Z,11.68
2022-10-11T05:50:30.066Z,11.58
2022-10-11T05:51:30.155Z,11.50
2022-10-11T05:52:29.976Z,11.46
2022-10-11T05:53:30.174Z,11.46
2022-10-11T05:54:30.031Z,11.46
2022-10-11T05:55:30.345Z,11.38
2022-10-11T05:56:30.055Z,11.44
2022-10-11T05:57:30.114Z,11.41
2022-10-11T05:58:30.086Z,11.26
2022-10-11T05:59:30.235Z,11.22
2022-10-11T06:00:30.064Z,11.19
2022-10-11T06:01:30.360Z,11.20
2022-10-11T06:02:30.005Z,11.28
2022-10-11T06:03:29.928Z,11.30
2022-10-11T06:04:29.995Z,11.35
2022-10-11T06:05:29.835Z,11.37
2022-10-11T06:06:30.048Z,11.40
2022-10-11T06:07:29.874Z,11.46
2022-10-11T06:08:30.025Z,11.46
2022-10-11T06:09:29.915Z,11.38
2022-10-11T06:10:29.981Z,11.29
2022-10-11T06:11:30.005Z,11.19
2022-10-11T06:12:29.914Z,11.08
2022-10-11T06:13:29.924Z,11.00
2022-10-11T06:14:29.995Z,11.01
2022-10-11T06:15:29.857Z,11.01
2022-10-11T06:16:29.767Z,11.07
2022-10-11T06:17:29.894Z,11.15
2022-10-11T06:18:29.726Z,11.28
2022-10-11T06:19:29.944Z,11.32
2022-10-11T06:20:29.714Z,11.32
2022-10-11T06:21:29.835Z,11.37
2022-10-11T06:22:30.164Z,11.43
2022-10-11T06:23:29.985Z,11.47
2022-10-11T06:24:29.735Z,11.53
2022-10-11T06:25:29.895Z,11.59
2022-10-11T06:26:29.725Z,11.63
2022-10-11T06:27:29.884Z,11.66
2022-10-11T06:28:29.974Z,11.69
2022-10-11T06:29:29.855Z,11.71
2022-10-11T06:30:30.025Z,11.79
2022-10-11T06:31:30.135Z,11.77
2022-10-11T06:32:30.474Z,11.80
2022-10-11T06:33:29.615Z,11.86
2022-10-11T06:34:29.735Z,11.91
2022-10-11T06:35:29.855Z,11.97
2022-10-11T06:36:30.285Z,12.02
2022-10-11T06:37:29.555Z,12.06
2022-10-11T06:38:30.085Z,12.05
2022-10-11T06:39:30.106Z,12.13
2022-10-11T06:40:30.034Z,12.17
2022-10-11T06:41:29.598Z,12.25
2022-10-11T06:42:29.726Z,12.30
2022-10-11T06:43:30.985Z,12.36
2022-10-11T06:44:29.634Z,12.42
2022-10-11T06:45:28.835Z,12.45
2022-10-11T06:46:29.975Z,12.55
2022-10-11T06:47:29.535Z,12.65
2022-10-11T06:48:29.455Z,12.75
2022-10-11T06:49:29.515Z,12.80
2022-10-11T06:50:54.383Z,12.93
2022-10-11T06:51:30.115Z,13.03
2022-10-11T06:52:29.457Z,13.08
2022-10-11T06:53:29.695Z,13.13
2022-10-11T06:54:29.396Z,13.19
2022-10-11T06:55:29.575Z,13.27
2022-10-11T06:56:29.373Z,13.29
2022-10-11T06:57:29.475Z,13.39
2022-10-11T06:58:29.495Z,13.45
2022-10-11T06:59:29.494Z,13.50
2022-10-11T07:00:29.464Z,13.43
2022-10-11T07:01:29.503Z,13.33
2022-10-11T07:02:29.363Z,13.30
2022-10-11T07:03:29.225Z,13.12
2022-10-11T07:04:29.565Z,13.09
2022-10-11T07:05:29.235Z,13.09
2022-10-11T07:06:29.404Z,13.27
2022-10-11T07:07:29.235Z,13.22
2022-10-11T07:08:29.444Z,13.39
2022-10-11T07:09:29.777Z,13.52
2022-10-11T07:10:30.134Z,13.63
2022-10-11T07:11:29.322Z,13.72
2022-10-11T07:12:30.595Z,13.86
2022-10-11T07:13:29.164Z,13.92
2022-10-11T07:14:29.424Z,13.90
2022-10-11T07:15:29.274Z,14.00
2022-10-11T07:16:29.315Z,14.08
2022-10-11T07:17:29.255Z,14.14
2022-10-11T07:18:29.216Z,14.36
2022-10-11T07:19:29.405Z,14.63
2022-10-11T07:20:29.215Z,14.89
2022-10-11T07:21:29.247Z,15.43
2022-10-11T07:22:29.104Z,16.02
2022-10-11T07:23:29.365Z,16.57
2022-10-11T07:24:29.065Z,16.99
2022-10-11T07:25:29.234Z,17.39
2022-10-11T07:26:32.532Z,17.75
2022-10-11T07:27:29.293Z,18.18
2022-10-11T07:28:29.161Z,18.53
2022-10-11T07:29:29.176Z,18.78
2022-10-11T07:30:29.165Z,19.08
2022-10-11T07:31:29.165Z,18.96
2022-10-11T07:32:29.094Z,19.60
2022-10-11T07:33:29.694Z,20.09
2022-10-11T07:34:29.053Z,20.53
2022-10-11T07:35:28.345Z,20.82
2022-10-11T07:36:29.125Z,20.99
2022-10-11T07:37:28.936Z,21.11
2022-10-11T07:38:29.176Z,21.14
2022-10-11T07:39:28.974Z,21.27
2022-10-11T07:40:29.187Z,21.81
2022-10-11T07:41:28.918Z,21.88
2022-10-11T07:42:29.035Z,22.35
2022-10-11T07:43:28.905Z,22.84
2022-10-11T07:44:28.966Z,23.03
2022-10-11T07:45:29.011Z,23.25
2022-10-11T07:46:29.118Z,23.28
2022-10-11T07:47:28.916Z,23.66
2022-10-11T07:48:29.056Z,23.86
2022-10-11T07:49:29.025Z,24.17
2022-10-11T07:50:28.955Z,24.05
2022-10-11T07:51:29.156Z,23.53
2022-10-11T07:52:28.705Z,23.88
2022-10-11T07:53:28.875Z,23.86
2022-10-11T07:54:28.795Z,23.41
2022-10-11T07:55:29.105Z,23.33
2022-10-11T07:56:28.753Z,22.15
2022-10-11T07:57:28.893Z,21.57
2022-10-11T07:58:28.745Z,21.52
2022-10-11T07:59:28.864Z,21.77
2022-10-11T08:00:28.734Z,22.72
2022-10-11T08:01:29.138Z,23.43
2022-10-11T08:02:29.087Z,22.87
2022-10-11T08:03:28.868Z,21.95
2022-10-11T08:04:28.824Z,22.36
2022-10-11T08:05:28.585Z,22.80
2022-10-11T08:06:28.816Z,22.44
2022-10-11T08:07:28.614Z,22.07
2022-10-11T08:08:28.789Z,21.93
2022-10-11T08:09:28.677Z,22.60
2022-10-11T08:10:28.755Z,22.68
2022-10-11T08:11:28.676Z,22.81
2022-10-11T08:12:28.784Z,23.66
2022-10-11T08:13:28.792Z,23.55
2022-10-11T08:14:28.675Z,23.78
2022-10-11T08:15:28.558Z,23.99
2022-10-11T08:16:28.774Z,24.29
2022-10-11T08:17:28.634Z,24.30
2022-10-11T08:18:28.605Z,24.65
2022-10-11T08:19:28.534Z,25.04
2022-10-11T08:20:28.525Z,25.25
2022-10-11T08:21:28.554Z,25.32
2022-10-11T08:22:28.503Z,25.50
2022-10-11T08:23:28.575Z,25.18
2022-10-11T08:24:28.384Z,25.41
2022-10-11T08:25:28.614Z,25.30
2022-10-11T08:26:28.403Z,25.10
2022-10-11T08:27:28.604Z,25.40
2022-10-11T08:28:28.508Z,25.14
2022-10-11T08:29:28.699Z,24.47
2022-10-11T08:30:28.419Z,24.08
2022-10-11T08:31:28.706Z,23.96
2022-10-11T08:32:28.435Z,25.25
2022-10-11T08:33:28.634Z,25.01
2022-10-11T08:34:28.525Z,25.80
2022-10-11T08:35:28.466Z,26.33
2022-10-11T08:36:28.524Z,25.69
2022-10-11T08:37:28.264Z,25.45
2022-10-11T08:38:28.544Z,25.40
2022-10-11T08:39:28.710Z,25.25
2022-10-11T08:40:31.600Z,25.96
2022-10-11T08:41:28.322Z,26.68
2022-10-11T08:42:28.513Z,27.29
2022-10-11T08:43:28.345Z,27.52
2022-10-11T08:44:34.158Z,27.77
2022-10-11T08:45:28.405Z,27.68
2022-10-11T08:46:28.364Z,27.74
2022-10-11T08:47:28.285Z,28.27
2022-10-11T08:48:28.354Z,28.72
2022-10-11T08:49:28.395Z,28.72
2022-10-11T08:50:28.708Z,28.63
2022-10-11T08:51:28.245Z,29.33
2022-10-11T08:52:28.115Z,29.76
2022-10-11T08:53:28.305Z,29.85
2022-10-11T08:54:28.214Z,30.12
2022-10-11T08:55:28.534Z,30.07
2022-10-11T08:56:28.374Z,30.32
2022-10-11T08:57:28.814Z,30.12
2022-10-11T08:58:28.054Z,29.90
2022-10-11T08:59:28.243Z,29.79
2022-10-11T09:00:28.253Z,29.29
2022-10-11T09:01:28.213Z,28.94
2022-10-11T09:02:43.621Z,29.62
2022-10-11T09:03:28.274Z,29.79
2022-10-11T09:04:28.094Z,29.47
2022-10-11T09:05:28.205Z,29.25
2022-10-11T09:06:28.073Z,29.97
2022-10-11T09:07:28.064Z,30.13
2022-10-11T09:08:28.185Z,30.28
2022-10-11T09:09:28.135Z,30.52
2022-10-11T09:10:28.226Z,30.27
2022-10-11T09:11:27.894Z,30.70
2022-10-11T09:12:31.959Z,30.87
2022-10-11T09:13:28.025Z,31.04
2022-10-11T09:14:28.134Z,30.88
2022-10-11T09:15:28.067Z,30.77
2022-10-11T09:16:28.166Z,30.63
2022-10-11T09:17:27.975Z,29.29
2022-10-11T09:18:28.690Z,27.95
2022-10-11T09:19:28.055Z,29.26
2022-10-11T09:20:28.056Z,30.20
2022-10-11T09:21:28.013Z,30.22
2022-10-11T09:22:30.552Z,30.32
2022-10-11T09:23:27.985Z,30.56
2022-10-11T09:24:27.910Z,31.06
2022-10-11T09:25:27.953Z,31.22
2022-10-11T09:26:27.904Z,31.04
2022-10-11T09:27:50.293Z,31.36
2022-10-11T09:28:28.018Z,31.07
2022-10-11T09:29:27.905Z,30.52
2022-10-11T09:30:28.127Z,29.58
2022-10-11T09:31:27.934Z,29.79
2022-10-11T09:32:27.836Z,30.48
2022-10-11T09:33:27.887Z,30.77
2022-10-11T09:34:27.865Z,30.27
2022-10-11T09:35:27.804Z,30.65
2022-10-11T09:36:27.755Z,30.63
2022-10-11T09:37:27.820Z,30.48
2022-10-11T09:38:27.937Z,30.36
2022-10-11T09:39:27.614Z,30.47
2022-10-11T09:40:27.785Z,29.09
2022-10-11T09:41:27.758Z,28.02
2022-10-11T09:42:27.804Z,27.11
2022-10-11T09:43:28.825Z,26.20
2022-10-11T09:44:27.964Z,25.96
2022-10-11T09:45:27.655Z,26.99
2022-10-11T09:46:27.766Z,27.68
2022-10-11T09:47:27.644Z,28.79
2022-10-11T09:48:27.865Z,29.51
2022-10-11T09:49:27.595Z,29.85
2022-10-11T09:50:27.704Z,29.94
2022-10-11T09:51:27.646Z,29.87
2022-10-11T09:52:26.855Z,30.03
2022-10-11T09:53:27.735Z,30.27
2022-10-11T09:54:27.494Z,30.24
2022-10-11T09:55:27.641Z,30.60
2022-10-11T09:56:27.474Z,30.60
2022-10-11T09:57:27.696Z,30.50
2022-10-11T09:58:27.495Z,30.77
2022-10-11T09:59:27.707Z,29.83
2022-10-11T10:00:27.624Z,29.23
2022-10-11T10:01:27.830Z,28.22
2022-10-11T10:02:27.614Z,28.42
2022-10-11T10:03:27.694Z,29.19
2022-10-11T10:04:27.444Z,30.02
2022-10-11T10:05:27.685Z,30.02
2022-10-11T10:06:27.435Z,30.48
2022-10-11T10:07:27.594Z,30.97
2022-10-11T10:08:27.435Z,30.60
2022-10-11T10:09:27.388Z,30.62
2022-10-11T10:10:27.516Z,29.48
2022-10-11T10:11:27.296Z,30.24
2022-10-11T10:12:27.506Z,30.93
2022-10-11T10:13:27.333Z,30.67
2022-10-11T10:14:27.465Z,30.94
2022-10-11T10:15:27.285Z,31.07
2022-10-11T10:16:27.916Z,30.96
2022-10-11T10:17:27.335Z,30.87
2022-10-11T10:18:27.784Z,30.85
2022-10-11T10:19:27.276Z,30.62
2022-10-11T10:20:27.466Z,30.28
2022-10-11T10:21:27.674Z,30.14
2022-10-11T10:22:27.414Z,29.50
2022-10-11T10:23:27.405Z,29.81
2022-10-11T10:24:27.174Z,30.12
2022-10-11T10:25:27.325Z,30.51
2022-10-11T10:26:27.487Z,30.78
2022-10-11T10:27:27.394Z,29.99
2022-10-11T10:28:27.200Z,30.52
2022-10-11T10:29:27.295Z,31.04
2022-10-11T10:30:28.339Z,30.31
2022-10-11T10:31:27.244Z,29.79
2022-10-11T10:32:28.137Z,29.28
2022-10-11T10:33:27.475Z,28.07
2022-10-11T10:34:27.714Z,28.66
2022-10-11T10:35:27.522Z,29.54
2022-10-11T10:36:27.155Z,29.95
2022-10-11T10:37:27.214Z,29.99
2022-10-11T10:38:27.514Z,28.85
2022-10-11T10:39:27.206Z,28.64
2022-10-11T10:40:27.504Z,29.13
2022-10-11T10:41:27.064Z,29.31
2022-10-11T10:42:27.185Z,29.32
2022-10-11T10:43:27.007Z,29.31
2022-10-11T10:44:27.175Z,29.10
2022-10-11T10:45:26.964Z,28.78
2022-10-11T10:46:27.134Z,28.04
2022-10-11T10:47:27.005Z,27.14
2022-10-11T10:48:27.147Z,26.35
2022-10-11T10:49:53.773Z,25.77
2022-10-11T10:50:27.105Z,25.22
2022-10-11T10:51:27.366Z,24.93
2022-10-11T10:52:27.215Z,24.69
2022-10-11T10:53:26.991Z,24.45
2022-10-11T10:54:27.044Z,24.20
2022-10-11T10:55:27.056Z,24.03
2022-10-11T10:56:27.124Z,24.02
2022-10-11T10:57:27.293Z,23.61
2022-10-11T10:58:26.804Z,23.17
2022-10-11T10:59:27.353Z,22.85
2022-10-11T11:00:26.858Z,22.84
2022-10-11T11:01:27.037Z,23.13
2022-10-11T11:02:40.196Z,23.25
2022-10-11T11:03:27.035Z,23.31
2022-10-11T11:04:26.847Z,23.20
2022-10-11T11:05:27.023Z,23.09
2022-10-11T11:06:27.454Z,23.06
2022-10-11T11:07:26.934Z,22.99
2022-10-11T11:08:26.815Z,22.95
2022-10-11T11:09:26.064Z,22.91
2022-10-11T11:10:26.884Z,22.98
2022-10-11T11:11:26.805Z,23.20
2022-10-11T11:12:26.824Z,23.24
2022-10-11T11:13:26.724Z,23.36
2022-10-11T11:14:26.844Z,23.38
2022-10-11T11:15:32.324Z,23.25
2022-10-11T11:16:26.824Z,23.24
2022-10-11T11:17:26.755Z,23.28
2022-10-11T11:18:26.877Z,23.41
2022-10-11T11:19:26.655Z,23.47
2022-10-11T11:20:26.795Z,23.51
2022-10-11T11:21:26.706Z,23.51
2022-10-11T11:22:31.821Z,23.59
2022-10-11T11:23:26.704Z,23.71
2022-10-11T11:24:26.695Z,23.74
2022-10-11T11:25:27.046Z,23.88
2022-10-11T11:26:26.876Z,23.71
2022-10-11T11:27:26.725Z,23.66
2022-10-11T11:28:26.563Z,23.65
2022-10-11T11:29:51.916Z,23.63
2022-10-11T11:30:26.556Z,23.73
2022-10-11T11:31:26.785Z,23.73
2022-10-11T11:32:26.445Z,23.63
2022-10-11T11:33:26.710Z,23.66
2022-10-11T11:34:26.467Z,23.31
2022-10-11T11:35:26.714Z,23.38
2022-10-11T11:36:26.506Z,23.53
2022-10-11T11:37:26.648Z,23.52
2022-10-11T11:38:29.676Z,23.38
2022-10-11T11:39:26.635Z,23.36
2022-10-11T11:40:26.684Z,23.37
2022-10-11T11:41:26.555Z,23.36
2022-10-11T11:42:26.477Z,23.36
2022-10-11T11:43:26.414Z,23.21
2022-10-11T11:44:27.644Z,23.33
2022-10-11T11:45:26.445Z,23.43
2022-10-11T11:46:26.894Z,23.31
2022-10-11T11:47:26.395Z,23.15
2022-10-11T11:48:26.837Z,23.09
2022-10-11T11:49:26.535Z,23.15
2022-10-11T11:50:26.769Z,23.18
2022-10-11T11:51:30.533Z,23.27
2022-10-11T11:52:26.424Z,23.20
2022-10-11T11:53:26.355Z,23.17
2022-10-11T11:54:26.506Z,23.14
2022-10-11T11:55:26.295Z,23.25
2022-10-11T11:56:26.380Z,23.22
2022-10-11T11:57:26.475Z,23.14
2022-10-11T11:58:26.155Z,23.17
2022-10-11T11:59:26.446Z,23.13
2022-10-11T12:00:26.275Z,23.07
2022-10-11T12:01:30.975Z,23.06
2022-10-11T12:02:26.236Z,22.96
2022-10-11T12:03:26.345Z,22.78
2022-10-11T12:04:26.156Z,22.73
2022-10-11T12:05:26.475Z,22.63
2022-10-11T12:06:26.201Z,22.65
2022-10-11T12:07:26.346Z,22.63
2022-10-11T12:08:26.235Z,22.30
2022-10-11T12:09:26.264Z,22.19
2022-10-11T12:10:26.185Z,22.15
2022-10-11T12:11:26.487Z,22.10
2022-10-11T12:12:26.134Z,22.08
2022-10-11T12:13:29.821Z,22.05
2022-10-11T12:14:26.356Z,21.99
2022-10-11T12:15:26.174Z,21.98
2022-10-11T12:16:26.274Z,21.98
2022-10-11T12:17:26.037Z,21.98
2022-10-11T12:18:26.125Z,22.07
2022-10-11T12:19:25.973Z,22.07
2022-10-11T12:20:26.138Z,22.13
2022-10-11T12:21:26.065Z,22.15
2022-10-11T12:22:26.316Z,22.13
2022-10-11T12:23:26.134Z,22.23
2022-10-11T12:24:26.055Z,22.25
2022-10-11T12:25:25.975Z,22.22
2022-10-11T12:26:26.054Z,22.22
2022-10-11T12:27:26.107Z,22.30
2022-10-11T12:28:26.141Z,22.33
2022-10-11T12:29:28.760Z,22.26
2022-10-11T12:30:25.884Z,22.33
2022-10-11T12:31:26.075Z,22.28
2022-10-11T12:32:25.814Z,22.33
2022-10-11T12:33:26.084Z,22.30
2022-10-11T12:34:25.804Z,22.30
2022-10-11T12:35:25.975Z,22.30
2022-10-11T12:36:25.907Z,22.29
2022-10-11T12:37:26.005Z,22.29
2022-10-11T12:38:25.904Z,22.32
2022-10-11T12:39:26.015Z,22.38
2022-10-11T12:40:26.006Z,22.33
2022-10-11T12:41:26.335Z,22.48
2022-10-11T12:42:25.855Z,22.53
2022-10-11T12:43:26.514Z,22.48
2022-10-11T12:44:26.044Z,22.17
2022-10-11T12:45:25.664Z,22.30
2022-10-11T12:46:25.886Z,22.45
2022-10-11T12:47:25.825Z,22.53
2022-10-11T12:48:30.220Z,22.47
2022-10-11T12:49:25.706Z,22.53
2022-10-11T12:50:25.866Z,22.48
2022-10-11T12:51:25.706Z,22.50
2022-10-11T12:52:25.995Z,22.54